Boise, ID (83705)

7:08 AM MST on December 06, 2016 (GMT -0700)
Country Club Sub #11 | | Change Station

Elev 2808 ft 43.58 °N, 116.24 °W | Updated 57 seconds ago

Overcast
Overcast
24.4 °F
Feels Like 19 °F
N
4.2
Wind Variable Wind from SE

Today
High -- | Low -- °F
--% Chance of Precip.
Yesterday
High -- | Low -- °F
Precip. -- in
Pressure 29.96 in
Visibility 10.0 miles
Clouds Overcast 4300 ft
Windchill 19 °F
Dew Point 14 °F
Humidity 65%
Rainfall 0.00 in
Snow Depth Not available.
8:04 AM 5:08 PM
Waxing Crescent, 42% visible
METAR KBOI 061353Z 16009KT 10SM OVC043 M04/M10 A2988 RMK AO2 SLP145 T10441100
Pressure 29.96 in
Visibility 10.0 miles
Clouds Overcast 4300 ft
Windchill 19 °F
Dew Point 14 °F
Humidity 65%
Rainfall 0.00 in
Snow Depth Not available.
8:04 AM 5:08 PM
Waxing Crescent, 42% visible
METAR KBOI 061353Z 16009KT 10SM OVC043 M04/M10 A2988 RMK AO2 SLP145 T10441100

10-Day Weather Forecast

Almanac

Astronomy

Dec. 06, 2016 Rise Set
Actual Time
Civil Twilight
Nautical Twilight
Astronomical Twilight
Moon
Length of Visible Light
Length of Day
Tomorrow will be .
, % of the Moon is Illuminated

Today's Extremes

State Highs State Lows

Community

WunderPhotos

Upload Photos

1,955,949 photos uploaded!

WunderBlog® & News

Nearby

Air Quality

  Air Quality AQ Index Pollutant
Not available.

Snow Depth

Station Depth Elevation

Earthquake Activity

City Distance Mag. Time & Date
Minimum magnitude displayed is 2.5.

Coastal Water Temperatures

Place Temperature

Stations

Nearby Weather Stations

Station Location Temp. Windchill Dew Point Humidity Wind Precip. Elev Updated Type
                   

Watches & Warnings

There are currently no watches in effect.